ADDS METAR Data INFO
IDs: Format: Raw Decoded Include TAF

Data at: 1432 UTC 24 Jul 2017

KSET 241354Z AUTO VRB04KT 10SM CLR 25/19 A2997 RMK AO2 SLP143 T02500189
No TAF found for KSET

KSTL 241351Z 01005KT 10SM CLR 26/19 A2998 RMK AO2 SLP137 T02610194

KSTL 241120Z 2412/2518 36006KT P6SM FEW040
  FM241600 05007KT P6SM SCT050
  FM250600 09006KT P6SM SCT050